UAL2053 KBZN-KDEN
Flight info
| Callsign | UAL2053 |
|---|---|
| Flight time | 0h 46m |
| Altitude | 37000 |
| Route | BOBKT5 BOY TOFUU FLATI5 |
| Aircraft | A320/M-SDE3FGHIRWY/LB1 |
Departure
| Time | 2026-04-26 19:57 |
|---|---|
| Airport | Bozeman Yellowstone International Airport (KBZN) |
Arrival
| Time | 2026-04-26 20:43 |
|---|---|
| Airport | Denver International Airport (KDEN) |
| Time | Latitude | Longitude | Altitude | Speed | Heading |
|---|---|---|---|---|---|
| 2026-04-26 19:42 | 45.77969 | -111.16163 | 4484 ft | 0 kts | 226° |
| 2026-04-26 19:49 | 45.77972 | -111.16158 | 4486 ft | 3 kts | 226° |
| 2026-04-26 19:50 | 45.77984 | -111.16140 | 4487 ft | 3 kts | 226° |
| 2026-04-26 19:50 | 45.77997 | -111.16122 | 4486 ft | 2 kts | 232° |
| 2026-04-26 19:50 | 45.78001 | -111.16100 | 4488 ft | 3 kts | 280° |
| 2026-04-26 19:50 | 45.77997 | -111.16077 | 4485 ft | 2 kts | 310° |
| 2026-04-26 19:51 | 45.77995 | -111.16073 | 4484 ft | 0 kts | 317° |
| 2026-04-26 19:53 | 45.77996 | -111.16074 | 4484 ft | 0 kts | 317° |
| 2026-04-26 19:53 | 45.78009 | -111.16091 | 4484 ft | 5 kts | 317° |
| 2026-04-26 19:53 | 45.78049 | -111.16144 | 4481 ft | 10 kts | 317° |
| 2026-04-26 19:53 | 45.78108 | -111.16139 | 4481 ft | 10 kts | 36° |
| 2026-04-26 19:54 | 45.78171 | -111.16168 | 4483 ft | 11 kts | 315° |
| 2026-04-26 19:54 | 45.78234 | -111.16257 | 4481 ft | 14 kts | 315° |
| 2026-04-26 19:54 | 45.78307 | -111.16359 | 4484 ft | 16 kts | 316° |
| 2026-04-26 19:54 | 45.78388 | -111.16471 | 4481 ft | 17 kts | 316° |
| 2026-04-26 19:55 | 45.78476 | -111.16593 | 4483 ft | 18 kts | 316° |
| 2026-04-26 19:55 | 45.78570 | -111.16722 | 4481 ft | 19 kts | 316° |
| 2026-04-26 19:55 | 45.78664 | -111.16822 | 4481 ft | 14 kts | 360° |
| 2026-04-26 19:55 | 45.78739 | -111.16732 | 4487 ft | 15 kts | 49° |
| 2026-04-26 19:56 | 45.78788 | -111.16648 | 4485 ft | 8 kts | 78° |
| 2026-04-26 19:56 | 45.78756 | -111.16570 | 4483 ft | 13 kts | 136° |
| 2026-04-26 19:56 | 45.78547 | -111.16280 | 4485 ft | 79 kts | 136° |
| 2026-04-26 19:56 | 45.77992 | -111.15509 | 4482 ft | 140 kts | 136° |
| 2026-04-26 19:57 | 45.77187 | -111.14395 | 4731 ft | 167 kts | 135° |
| 2026-04-26 19:57 | 45.76376 | -111.13234 | 5507 ft | 165 kts | 133° |
| 2026-04-26 19:57 | 45.75576 | -111.12058 | 6234 ft | 164 kts | 134° |
| 2026-04-26 19:57 | 45.74747 | -111.10839 | 6680 ft | 182 kts | 133° |
| 2026-04-26 19:58 | 45.73811 | -111.09464 | 6884 ft | 205 kts | 133° |
| 2026-04-26 19:58 | 45.72744 | -111.07917 | 7035 ft | 233 kts | 133° |
| 2026-04-26 19:58 | 45.71559 | -111.06211 | 7370 ft | 256 kts | 133° |
| 2026-04-26 19:58 | 45.70259 | -111.04349 | 7922 ft | 272 kts | 134° |
| 2026-04-26 19:59 | 45.68899 | -111.02402 | 8728 ft | 275 kts | 133° |
| 2026-04-26 19:59 | 45.67539 | -111.00447 | 9510 ft | 279 kts | 133° |
| 2026-04-26 19:59 | 45.66439 | -110.98208 | 10192 ft | 283 kts | 109° |
| 2026-04-26 19:59 | 45.65950 | -110.95396 | 10494 ft | 303 kts | 100° |
| 2026-04-26 20:00 | 45.65615 | -110.92307 | 10678 ft | 326 kts | 97° |
| 2026-04-26 20:00 | 45.65332 | -110.88982 | 10813 ft | 348 kts | 96° |
| 2026-04-26 20:00 | 45.65038 | -110.85480 | 11145 ft | 361 kts | 100° |
| 2026-04-26 20:00 | 45.64297 | -110.82029 | 11678 ft | 367 kts | 116° |
| 2026-04-26 20:01 | 45.62906 | -110.78974 | 12278 ft | 369 kts | 133° |
| 2026-04-26 20:01 | 45.60964 | -110.76583 | 12899 ft | 370 kts | 148° |
| 2026-04-26 20:01 | 45.58794 | -110.74577 | 13545 ft | 373 kts | 149° |
| 2026-04-26 20:01 | 45.56599 | -110.72555 | 14147 ft | 376 kts | 149° |
| 2026-04-26 20:02 | 45.54392 | -110.70518 | 14713 ft | 379 kts | 149° |
| 2026-04-26 20:02 | 45.52172 | -110.68460 | 15299 ft | 382 kts | 150° |
| 2026-04-26 20:02 | 45.49936 | -110.66374 | 15873 ft | 385 kts | 150° |
| 2026-04-26 20:02 | 45.48455 | -110.64988 | 16238 ft | 386 kts | 150° |
| 2026-04-26 20:03 | 45.45435 | -110.62167 | 17048 ft | 389 kts | 150° |
| 2026-04-26 20:03 | 45.43161 | -110.60051 | 17685 ft | 392 kts | 151° |
| 2026-04-26 20:03 | 45.40870 | -110.57920 | 18283 ft | 395 kts | 151° |
| 2026-04-26 20:03 | 45.38560 | -110.55778 | 18789 ft | 398 kts | 152° |
| 2026-04-26 20:04 | 45.36233 | -110.53626 | 19358 ft | 400 kts | 152° |
| 2026-04-26 20:04 | 45.33923 | -110.51493 | 19863 ft | 403 kts | 152° |
| 2026-04-26 20:04 | 45.31564 | -110.49325 | 20417 ft | 405 kts | 153° |
| 2026-04-26 20:04 | 45.29193 | -110.47145 | 20851 ft | 407 kts | 153° |
| 2026-04-26 20:05 | 45.26815 | -110.44957 | 21302 ft | 409 kts | 153° |
| 2026-04-26 20:05 | 45.24414 | -110.42747 | 21751 ft | 411 kts | 153° |
| 2026-04-26 20:05 | 45.22009 | -110.40532 | 22179 ft | 413 kts | 153° |
| 2026-04-26 20:05 | 45.19590 | -110.38308 | 22547 ft | 416 kts | 153° |
| 2026-04-26 20:06 | 45.17163 | -110.36075 | 22965 ft | 418 kts | 153° |
| 2026-04-26 20:06 | 45.14718 | -110.33832 | 23344 ft | 420 kts | 153° |
| 2026-04-26 20:06 | 45.12257 | -110.31579 | 23610 ft | 423 kts | 153° |
| 2026-04-26 20:06 | 45.09773 | -110.29308 | 23878 ft | 427 kts | 153° |
| 2026-04-26 20:07 | 45.07275 | -110.27025 | 24197 ft | 429 kts | 153° |
| 2026-04-26 20:07 | 45.04764 | -110.24730 | 24506 ft | 431 kts | 153° |
| 2026-04-26 20:07 | 45.02244 | -110.22425 | 24814 ft | 432 kts | 153° |
| 2026-04-26 20:07 | 44.99713 | -110.20113 | 25146 ft | 434 kts | 153° |
| 2026-04-26 20:08 | 44.97168 | -110.17800 | 25439 ft | 436 kts | 153° |
| 2026-04-26 20:08 | 44.94633 | -110.15420 | 25720 ft | 441 kts | 149° |
| 2026-04-26 20:08 | 44.92278 | -110.12572 | 26051 ft | 447 kts | 143° |
| 2026-04-26 20:08 | 44.90004 | -110.09595 | 26509 ft | 445 kts | 144° |
| 2026-04-26 20:09 | 44.87734 | -110.06644 | 26975 ft | 443 kts | 144° |
| 2026-04-26 20:09 | 44.85464 | -110.03715 | 27415 ft | 442 kts | 144° |
| 2026-04-26 20:09 | 44.83198 | -110.00801 | 27887 ft | 440 kts | 144° |
| 2026-04-26 20:09 | 44.80936 | -109.97898 | 28370 ft | 439 kts | 144° |
| 2026-04-26 20:10 | 44.78681 | -109.95004 | 28824 ft | 438 kts | 144° |
| 2026-04-26 20:10 | 44.76434 | -109.92111 | 29348 ft | 436 kts | 144° |
| 2026-04-26 20:10 | 44.74196 | -109.89232 | 29863 ft | 434 kts | 144° |
| 2026-04-26 20:10 | 44.71995 | -109.86405 | 30286 ft | 433 kts | 144° |
| 2026-04-26 20:11 | 44.69747 | -109.83524 | 30721 ft | 432 kts | 144° |
| 2026-04-26 20:11 | 44.67556 | -109.80720 | 31111 ft | 432 kts | 144° |
| 2026-04-26 20:11 | 44.65335 | -109.77884 | 31517 ft | 431 kts | 144° |
| 2026-04-26 20:12 | 44.60898 | -109.72225 | 32274 ft | 430 kts | 143° |
| 2026-04-26 20:12 | 44.58680 | -109.69397 | 32665 ft | 430 kts | 143° |
| 2026-04-26 20:12 | 44.56468 | -109.66581 | 33039 ft | 429 kts | 143° |
| 2026-04-26 20:12 | 44.54261 | -109.63775 | 33436 ft | 429 kts | 143° |
| 2026-04-26 20:13 | 44.52051 | -109.60968 | 33850 ft | 428 kts | 143° |
| 2026-04-26 20:13 | 44.49842 | -109.58165 | 34159 ft | 429 kts | 143° |
| 2026-04-26 20:13 | 44.47632 | -109.55357 | 34430 ft | 429 kts | 143° |
| 2026-04-26 20:13 | 44.45416 | -109.52545 | 34665 ft | 430 kts | 143° |
| 2026-04-26 20:14 | 44.43192 | -109.49729 | 34891 ft | 432 kts | 143° |
| 2026-04-26 20:14 | 44.40959 | -109.46904 | 35137 ft | 432 kts | 143° |
| 2026-04-26 20:14 | 44.38726 | -109.44082 | 35366 ft | 433 kts | 143° |
| 2026-04-26 20:14 | 44.36489 | -109.41257 | 35605 ft | 434 kts | 143° |
| 2026-04-26 20:15 | 44.34276 | -109.38469 | 35843 ft | 434 kts | 143° |
| 2026-04-26 20:15 | 44.32029 | -109.35642 | 36064 ft | 435 kts | 143° |
| 2026-04-26 20:15 | 44.29777 | -109.32812 | 36277 ft | 436 kts | 143° |
| 2026-04-26 20:15 | 44.27522 | -109.29986 | 36503 ft | 436 kts | 143° |
| 2026-04-26 20:16 | 44.25263 | -109.27161 | 36707 ft | 436 kts | 143° |
| 2026-04-26 20:16 | 44.22998 | -109.24326 | 36829 ft | 439 kts | 143° |
| 2026-04-26 20:16 | 44.21486 | -109.22432 | 36836 ft | 443 kts | 143° |
| 2026-04-26 20:17 | 44.16851 | -109.16641 | 36834 ft | 451 kts | 143° |
| 2026-04-26 20:17 | 44.12171 | -109.10795 | 36830 ft | 453 kts | 143° |
| 2026-04-26 20:18 | 44.07474 | -109.04932 | 36829 ft | 453 kts | 143° |
| 2026-04-26 20:18 | 44.02778 | -108.99095 | 36828 ft | 453 kts | 143° |
| 2026-04-26 20:19 | 40.86219 | -106.25307 | 36519 ft | 459 kts | 144° |
| 2026-04-26 20:19 | 40.83889 | -106.22439 | 36628 ft | 456 kts | 140° |
| 2026-04-26 20:19 | 40.81909 | -106.19157 | 36250 ft | 460 kts | 126° |
| 2026-04-26 20:19 | 40.80479 | -106.15364 | 35329 ft | 463 kts | 120° |
| 2026-04-26 20:20 | 40.79166 | -106.11491 | 34339 ft | 462 kts | 119° |
| 2026-04-26 20:20 | 40.77890 | -106.07618 | 33336 ft | 459 kts | 118° |
| 2026-04-26 20:20 | 40.76652 | -106.03819 | 32207 ft | 455 kts | 118° |
| 2026-04-26 20:20 | 40.75402 | -105.99997 | 31022 ft | 452 kts | 118° |
| 2026-04-26 20:21 | 40.74146 | -105.96199 | 29740 ft | 452 kts | 118° |
| 2026-04-26 20:21 | 40.72876 | -105.92411 | 28175 ft | 452 kts | 118° |
| 2026-04-26 20:21 | 40.71583 | -105.88619 | 26440 ft | 455 kts | 119° |
| 2026-04-26 20:21 | 40.70238 | -105.84813 | 24605 ft | 461 kts | 120° |
| 2026-04-26 20:22 | 40.68849 | -105.80988 | 23225 ft | 459 kts | 120° |
| 2026-04-26 20:22 | 40.67467 | -105.77216 | 22097 ft | 456 kts | 120° |
| 2026-04-26 20:22 | 40.66086 | -105.73449 | 21782 ft | 457 kts | 120° |
| 2026-04-26 20:22 | 40.64708 | -105.69676 | 21517 ft | 457 kts | 120° |
| 2026-04-26 20:23 | 40.63337 | -105.65899 | 21259 ft | 457 kts | 119° |
| 2026-04-26 20:23 | 40.61970 | -105.62114 | 21002 ft | 457 kts | 118° |
| 2026-04-26 20:23 | 40.60619 | -105.58361 | 20743 ft | 447 kts | 118° |
| 2026-04-26 20:23 | 40.59318 | -105.54741 | 20490 ft | 431 kts | 119° |
| 2026-04-26 20:24 | 40.58063 | -105.51263 | 20240 ft | 420 kts | 119° |
| 2026-04-26 20:24 | 40.56819 | -105.47836 | 20007 ft | 410 kts | 119° |
| 2026-04-26 20:24 | 40.55586 | -105.44450 | 19761 ft | 401 kts | 119° |
| 2026-04-26 20:24 | 40.54405 | -105.41214 | 19528 ft | 392 kts | 120° |
| 2026-04-26 20:25 | 40.53224 | -105.37977 | 19294 ft | 383 kts | 120° |
| 2026-04-26 20:25 | 40.52468 | -105.35904 | 19136 ft | 378 kts | 119° |
| 2026-04-26 20:25 | 40.50967 | -105.31802 | 18840 ft | 374 kts | 120° |
| 2026-04-26 20:25 | 40.49827 | -105.28695 | 18610 ft | 373 kts | 120° |
| 2026-04-26 20:26 | 40.48702 | -105.25634 | 18380 ft | 371 kts | 118° |
| 2026-04-26 20:26 | 40.47597 | -105.22631 | 18154 ft | 367 kts | 118° |
| 2026-04-26 20:26 | 40.46412 | -105.19712 | 17924 ft | 357 kts | 126° |
| 2026-04-26 20:26 | 40.44854 | -105.17227 | 17659 ft | 346 kts | 139° |
| 2026-04-26 20:27 | 40.43005 | -105.15286 | 17393 ft | 336 kts | 148° |
| 2026-04-26 20:27 | 40.41102 | -105.13523 | 17133 ft | 333 kts | 148° |
| 2026-04-26 20:27 | 40.39213 | -105.11773 | 16873 ft | 332 kts | 148° |
| 2026-04-26 20:27 | 40.37330 | -105.10029 | 16612 ft | 331 kts | 148° |
| 2026-04-26 20:28 | 40.35453 | -105.08291 | 16395 ft | 330 kts | 148° |
| 2026-04-26 20:28 | 40.33592 | -105.06568 | 16206 ft | 327 kts | 148° |
| 2026-04-26 20:28 | 40.31731 | -105.04842 | 16022 ft | 326 kts | 148° |
| 2026-04-26 20:28 | 40.29883 | -105.03127 | 15841 ft | 325 kts | 148° |
| 2026-04-26 20:29 | 40.28034 | -105.01412 | 15673 ft | 325 kts | 148° |
| 2026-04-26 20:29 | 40.26189 | -104.99705 | 15509 ft | 325 kts | 148° |
| 2026-04-26 20:29 | 40.24365 | -104.98020 | 15419 ft | 324 kts | 148° |
| 2026-04-26 20:29 | 40.22522 | -104.96317 | 15321 ft | 324 kts | 148° |
| 2026-04-26 20:30 | 40.20681 | -104.94615 | 15218 ft | 324 kts | 148° |
| 2026-04-26 20:30 | 40.18826 | -104.92921 | 15039 ft | 322 kts | 151° |
| 2026-04-26 20:30 | 40.16845 | -104.91608 | 14878 ft | 314 kts | 161° |
| 2026-04-26 20:30 | 40.14875 | -104.90505 | 14740 ft | 308 kts | 161° |
| 2026-04-26 20:31 | 40.12919 | -104.89404 | 14592 ft | 303 kts | 161° |
| 2026-04-26 20:31 | 40.10992 | -104.88318 | 14447 ft | 301 kts | 161° |
| 2026-04-26 20:31 | 40.09073 | -104.87239 | 14308 ft | 300 kts | 161° |
| 2026-04-26 20:31 | 40.07153 | -104.86160 | 14176 ft | 299 kts | 161° |
| 2026-04-26 20:32 | 40.05245 | -104.85088 | 14039 ft | 298 kts | 161° |
| 2026-04-26 20:32 | 40.03340 | -104.84010 | 13891 ft | 297 kts | 161° |
| 2026-04-26 20:32 | 40.01469 | -104.82939 | 13765 ft | 297 kts | 161° |
| 2026-04-26 20:32 | 39.99576 | -104.81853 | 13630 ft | 296 kts | 161° |
| 2026-04-26 20:33 | 39.97668 | -104.80867 | 13481 ft | 291 kts | 169° |
| 2026-04-26 20:33 | 39.95686 | -104.80455 | 13326 ft | 286 kts | 182° |
| 2026-04-26 20:33 | 39.93690 | -104.80501 | 13127 ft | 288 kts | 186° |
| 2026-04-26 20:33 | 39.91678 | -104.80563 | 12678 ft | 290 kts | 185° |
| 2026-04-26 20:34 | 39.89673 | -104.80620 | 12283 ft | 291 kts | 184° |
| 2026-04-26 20:34 | 39.87640 | -104.80673 | 11920 ft | 291 kts | 184° |
| 2026-04-26 20:34 | 39.85610 | -104.80727 | 11492 ft | 291 kts | 184° |
| 2026-04-26 20:34 | 39.83600 | -104.80785 | 11254 ft | 285 kts | 183° |
| 2026-04-26 20:35 | 39.81638 | -104.80833 | 11047 ft | 279 kts | 183° |
| 2026-04-26 20:35 | 39.79732 | -104.80868 | 10803 ft | 275 kts | 182° |
| 2026-04-26 20:35 | 39.77821 | -104.80896 | 10518 ft | 273 kts | 181° |
| 2026-04-26 20:35 | 39.75929 | -104.80919 | 10226 ft | 271 kts | 182° |
| 2026-04-26 20:36 | 39.74039 | -104.80938 | 9925 ft | 271 kts | 181° |
| 2026-04-26 20:36 | 39.72152 | -104.80954 | 9546 ft | 272 kts | 180° |
| 2026-04-26 20:36 | 39.70274 | -104.80969 | 9188 ft | 264 kts | 180° |
| 2026-04-26 20:36 | 39.68483 | -104.80981 | 8928 ft | 251 kts | 181° |
| 2026-04-26 20:37 | 39.66799 | -104.80990 | 8704 ft | 238 kts | 180° |
| 2026-04-26 20:37 | 39.65240 | -104.80537 | 8501 ft | 228 kts | 150° |
| 2026-04-26 20:37 | 39.64151 | -104.79106 | 8292 ft | 223 kts | 116° |
| 2026-04-26 20:37 | 39.63825 | -104.77168 | 8113 ft | 221 kts | 92° |
| 2026-04-26 20:38 | 39.63849 | -104.75160 | 8017 ft | 224 kts | 88° |
| 2026-04-26 20:38 | 39.64109 | -104.73196 | 8014 ft | 224 kts | 63° |
| 2026-04-26 20:38 | 39.65112 | -104.71683 | 8012 ft | 223 kts | 29° |
| 2026-04-26 20:38 | 39.66574 | -104.71162 | 8014 ft | 220 kts | 353° |
| 2026-04-26 20:39 | 39.68087 | -104.71470 | 8014 ft | 220 kts | 347° |
| 2026-04-26 20:39 | 39.69094 | -104.71630 | 8007 ft | 221 kts | 3° |
| 2026-04-26 20:39 | 39.71042 | -104.70796 | 8016 ft | 224 kts | 25° |
| 2026-04-26 20:39 | 39.72395 | -104.69880 | 7989 ft | 214 kts | 27° |
| 2026-04-26 20:40 | 39.73705 | -104.69040 | 7823 ft | 205 kts | 14° |
| 2026-04-26 20:40 | 39.75066 | -104.68843 | 7656 ft | 197 kts | 359° |
| 2026-04-26 20:40 | 39.76424 | -104.68831 | 7430 ft | 194 kts | 358° |
| 2026-04-26 20:40 | 39.77744 | -104.68818 | 7167 ft | 182 kts | 358° |
| 2026-04-26 20:41 | 39.78958 | -104.68803 | 6947 ft | 167 kts | 358° |
| 2026-04-26 20:41 | 39.80076 | -104.68790 | 6747 ft | 156 kts | 356° |
| 2026-04-26 20:41 | 39.81144 | -104.68778 | 6554 ft | 151 kts | 357° |
| 2026-04-26 20:41 | 39.82186 | -104.68769 | 6306 ft | 148 kts | 358° |
| 2026-04-26 20:42 | 39.83185 | -104.68759 | 6098 ft | 143 kts | 357° |
| 2026-04-26 20:42 | 39.84171 | -104.68746 | 5917 ft | 141 kts | 358° |
| 2026-04-26 20:42 | 39.85149 | -104.68729 | 5678 ft | 139 kts | 357° |
| 2026-04-26 20:42 | 39.86114 | -104.68717 | 5471 ft | 138 kts | 358° |
| 2026-04-26 20:43 | 39.87032 | -104.68713 | 5363 ft | 119 kts | 0° |
| 2026-04-26 20:43 | 39.87685 | -104.68703 | 5367 ft | 69 kts | 0° |
| 2026-04-26 20:43 | 39.88101 | -104.68699 | 5367 ft | 54 kts | 1° |
| 2026-04-26 20:43 | 39.88403 | -104.68678 | 5364 ft | 38 kts | 11° |
| 2026-04-26 20:44 | 39.88587 | -104.68581 | 5364 ft | 13 kts | 33° |
| 2026-04-26 20:44 | 39.88622 | -104.68513 | 5366 ft | 8 kts | 98° |
| 2026-04-26 20:44 | 39.88575 | -104.68479 | 5366 ft | 9 kts | 177° |
| 2026-04-26 20:44 | 39.88501 | -104.68481 | 5365 ft | 12 kts | 180° |
| 2026-04-26 20:45 | 39.88412 | -104.68482 | 5365 ft | 13 kts | 180° |
| 2026-04-26 20:45 | 39.88314 | -104.68481 | 5366 ft | 16 kts | 180° |
| 2026-04-26 20:45 | 39.88194 | -104.68482 | 5364 ft | 18 kts | 180° |
| 2026-04-26 20:45 | 39.88079 | -104.68484 | 5364 ft | 11 kts | 180° |
| 2026-04-26 20:46 | 39.88007 | -104.68484 | 5364 ft | 11 kts | 180° |
| 2026-04-26 20:46 | 39.87949 | -104.68485 | 5364 ft | 8 kts | 180° |
| 2026-04-26 20:46 | 39.87891 | -104.68486 | 5365 ft | 9 kts | 181° |
| 2026-04-26 20:46 | 39.87816 | -104.68487 | 5365 ft | 12 kts | 180° |
| 2026-04-26 20:47 | 39.87729 | -104.68487 | 5365 ft | 13 kts | 181° |
| 2026-04-26 20:47 | 39.87664 | -104.68489 | 5363 ft | 15 kts | 181° |
| 2026-04-26 20:47 | 39.87505 | -104.68490 | 5363 ft | 19 kts | 180° |
| 2026-04-26 20:47 | 39.87366 | -104.68491 | 5364 ft | 20 kts | 180° |
| 2026-04-26 20:48 | 39.87223 | -104.68495 | 5366 ft | 21 kts | 181° |
| 2026-04-26 20:48 | 39.87075 | -104.68498 | 5364 ft | 21 kts | 181° |
| 2026-04-26 20:48 | 39.86924 | -104.68498 | 5364 ft | 22 kts | 180° |
| 2026-04-26 20:48 | 39.86775 | -104.68499 | 5364 ft | 22 kts | 180° |
| 2026-04-26 20:49 | 39.86630 | -104.68501 | 5363 ft | 20 kts | 180° |
| 2026-04-26 20:49 | 39.86487 | -104.68502 | 5366 ft | 21 kts | 180° |
| 2026-04-26 20:49 | 39.86342 | -104.68503 | 5366 ft | 21 kts | 181° |
| 2026-04-26 20:49 | 39.86192 | -104.68507 | 5366 ft | 22 kts | 181° |
| 2026-04-26 20:50 | 39.86038 | -104.68509 | 5365 ft | 22 kts | 180° |
| 2026-04-26 20:50 | 39.85880 | -104.68510 | 5366 ft | 23 kts | 180° |
| 2026-04-26 20:50 | 39.85742 | -104.68511 | 5364 ft | 14 kts | 180° |
| 2026-04-26 20:50 | 39.85689 | -104.68470 | 5366 ft | 9 kts | 109° |
| 2026-04-26 20:51 | 39.85687 | -104.68377 | 5366 ft | 11 kts | 90° |
| 2026-04-26 20:51 | 39.85688 | -104.68272 | 5366 ft | 12 kts | 89° |
| 2026-04-26 20:51 | 39.85673 | -104.68163 | 5363 ft | 13 kts | 120° |
| 2026-04-26 20:51 | 39.85668 | -104.68047 | 5366 ft | 13 kts | 89° |
| 2026-04-26 20:52 | 39.85669 | -104.67921 | 5366 ft | 14 kts | 90° |
| 2026-04-26 20:52 | 39.85668 | -104.67786 | 5366 ft | 15 kts | 91° |
| 2026-04-26 20:52 | 39.85667 | -104.67644 | 5366 ft | 16 kts | 90° |
| 2026-04-26 20:52 | 39.85666 | -104.67486 | 5366 ft | 18 kts | 90° |
| 2026-04-26 20:53 | 39.85665 | -104.67315 | 5366 ft | 19 kts | 90° |
| 2026-04-26 20:53 | 39.85666 | -104.67140 | 5366 ft | 14 kts | 84° |
| 2026-04-26 20:53 | 39.85711 | -104.67064 | 5365 ft | 8 kts | 28° |
| 2026-04-26 20:53 | 39.85749 | -104.67038 | 5365 ft | 3 kts | 28° |
| 2026-04-26 20:54 | 39.85774 | -104.67030 | 5365 ft | 4 kts | 2° |
| 2026-04-26 20:54 | 39.85803 | -104.67031 | 5365 ft | 4 kts | 1° |
| 2026-04-26 20:54 | 39.85807 | -104.67031 | 5365 ft | 0 kts | 0° |